Wildersville, TN

8:56 PM CST on March 04, 2015 (GMT -0600)
North Park | Change Station
CLOSE
Current Station
Personal Weather Station
Location: Jackson, TN
Elevation: 423 ft
Nearby Weather Stations
Active Advisory: Winter Storm Warning

Elev 423 ft 35.71 °N, 88.82 °W | Updated 1 minute ago

Ice Pellets
Ice Pellets
27.0 °F
Feels Like 18 °F
N
9.0
Wind Variable Wind from North
Gusts 11.0 mph

Today
High -- | Low -- °F
--% Chance of Precip.
Yesterday
High -- | Low -- °F
Precip. -- in
6:19 AM 5:51 PM
Full, 100% visible
Pressure 30.15 in
Visibility 3.0 miles
Clouds Scattered Clouds 900 ft
Mostly Cloudy 1400 ft
Overcast 2100 ft
Windchill 18 °F
Dew Point 26 °F
Humidity 95%
Rainfall 0.93 in
Snow Depth Not available.
UV 0 out of 12
Pollen .90 out of 12
Air Quality Not available.
Flu Activity Not available.
METAR KMKL 050153Z AUTO 01014G21KT 3SM -SN BR SCT009 BKN014 OVC021 M02/M03 A3014 RMK AO2 PK WND 01028/0117 UPE06SNB06 SLP209 P0000 T10171033

More Conditions Fewer Conditions

Pressure 30.15 in
Visibility 3.0 miles
Clouds Scattered Clouds 900 ft
Mostly Cloudy 1400 ft
Overcast 2100 ft
Windchill 18 °F
Dew Point 26 °F
Humidity 95%
Rainfall 0.93 in
Snow Depth Not available.
UV 0 out of 12
Pollen .90 out of 12
Air Quality Not available.
Flu Activity Not available.
METAR KMKL 050153Z AUTO 01014G21KT 3SM -SN BR SCT009 BKN014 OVC021 M02/M03 A3014 RMK AO2 PK WND 01028/0117 UPE06SNB06 SLP209 P0000 T10171033

More Conditions Fewer Conditions

10-Day Weather Forecast

Almanac

Astronomy

Mar. 04, 2015 Rise Set
Actual Time
Civil Twilight
Nautical Twilight
Astronomical Twilight
Moon
Length of Visible Light
Length of Day
Tomorrow will be .
, % of the Moon is Illuminated

Today's Extremes

State Highs State Lows

Community

WunderPhotos

Upload Photos

1,802,634 photos uploaded!

WunderBlogs® & News

Nearby

Air Quality

  Air Quality AQ Index Pollutant
Not available.

Snow Depth

Station Depth Elevation

Earthquake Activity

City Distance Mag. Time & Date
Minimum magnitude displayed is 2.5.

Coastal Water Temperatures

Place Temperature

Nearby Weather Stations

Winter Storm Warning
Statement as of 8:28 PM CST on March 04, 2015

... Winter Storm Warning remains in effect until noon CST
Thursday...

* snow/sleet/ice accumulations... snow accumulations between 1 and
3 inches... 1 to 2 inches of sleet... and around one tenth of an
inch of ice.

* Timing... through 12 PM CST Thursday afternoon.

* Impacts... travel will remain hazardous.

Precautionary/preparedness actions...

A Winter Storm Warning means significant amounts of snow...
sleet... and ice are expected or occurring. Strong winds are also
possible. This will make travel very hazardous or impossible.